sensor_id;sensor_type;location;lat;lon;timestamp;P1;durP1;ratioP1;P2;durP2;ratioP2
73264;SDS011;61493;51.008;14.088;2022-07-29T00:00:34;4.18;;;1.60;;
73264;SDS011;61493;51.008;14.088;2022-07-29T00:03:00;1.48;;;1.20;;
73264;SDS011;61493;51.008;14.088;2022-07-29T00:05:25;2.55;;;1.30;;
73264;SDS011;61493;51.008;14.088;2022-07-29T00:07:50;2.38;;;1.48;;
73264;SDS011;61493;51.008;14.088;2022-07-29T00:10:15;2.20;;;1.55;;
73264;SDS011;61493;51.008;14.088;2022-07-29T00:12:41;3.15;;;1.20;;
73264;SDS011;61493;51.008;14.088;2022-07-29T00:15:06;2.45;;;1.30;;
73264;SDS011;61493;51.008;14.088;2022-07-29T00:17:32;3.70;;;1.63;;
73264;SDS011;61493;51.008;14.088;2022-07-29T00:19:58;3.88;;;1.50;;
73264;SDS011;61493;51.008;14.088;2022-07-29T00:22:24;5.43;;;1.88;;
73264;SDS011;61493;51.008;14.088;2022-07-29T00:24:49;3.30;;;1.52;;
73264;SDS011;61493;51.008;14.088;2022-07-29T00:27:15;3.20;;;1.60;;
73264;SDS011;61493;51.008;14.088;2022-07-29T00:29:41;3.10;;;1.60;;
73264;SDS011;61493;51.008;14.088;2022-07-29T00:32:06;3.33;;;1.20;;
73264;SDS011;61493;51.008;14.088;2022-07-29T00:34:31;4.32;;;1.60;;
73264;SDS011;61493;51.008;14.088;2022-07-29T00:37:15;3.47;;;1.63;;
73264;SDS011;61493;51.008;14.088;2022-07-29T00:39:41;3.60;;;1.70;;
73264;SDS011;61493;51.008;14.088;2022-07-29T00:42:06;5.10;;;1.83;;
73264;SDS011;61493;51.008;14.088;2022-07-29T00:44:36;3.33;;;1.40;;
73264;SDS011;61493;51.008;14.088;2022-07-29T00:47:02;3.97;;;1.35;;
73264;SDS011;61493;51.008;14.088;2022-07-29T00:49:28;5.25;;;1.58;;
73264;SDS011;61493;51.008;14.088;2022-07-29T00:51:53;3.15;;;1.80;;
73264;SDS011;61493;51.008;14.088;2022-07-29T00:54:19;2.97;;;1.77;;
73264;SDS011;61493;51.008;14.088;2022-07-29T00:56:44;2.97;;;1.58;;
73264;SDS011;61493;51.008;14.088;2022-07-29T00:59:09;3.58;;;1.60;;
73264;SDS011;61493;51.008;14.088;2022-07-29T01:01:34;3.42;;;1.85;;
73264;SDS011;61493;51.008;14.088;2022-07-29T01:04:00;1.42;;;1.17;;
73264;SDS011;61493;51.008;14.088;2022-07-29T01:06:25;3.58;;;1.60;;
73264;SDS011;61493;51.008;14.088;2022-07-29T01:08:51;4.68;;;1.65;;
73264;SDS011;61493;51.008;14.088;2022-07-29T01:11:17;3.30;;;1.50;;
73264;SDS011;61493;51.008;14.088;2022-07-29T01:13:43;3.50;;;1.40;;
73264;SDS011;61493;51.008;14.088;2022-07-29T01:16:12;7.75;;;1.60;;
73264;SDS011;61493;51.008;14.088;2022-07-29T01:18:44;2.28;;;1.35;;
73264;SDS011;61493;51.008;14.088;2022-07-29T01:26:42;4.40;;;1.58;;
73264;SDS011;61493;51.008;14.088;2022-07-29T01:29:32;3.40;;;1.58;;
73264;SDS011;61493;51.008;14.088;2022-07-29T01:32:08;3.55;;;1.67;;
73264;SDS011;61493;51.008;14.088;2022-07-29T01:34:50;3.65;;;1.48;;
73264;SDS011;61493;51.008;14.088;2022-07-29T01:37:20;3.15;;;1.85;;
73264;SDS011;61493;51.008;14.088;2022-07-29T01:39:49;3.67;;;1.60;;
73264;SDS011;61493;51.008;14.088;2022-07-29T01:42:31;2.70;;;1.60;;
73264;SDS011;61493;51.008;14.088;2022-07-29T01:47:56;3.78;;;1.63;;
73264;SDS011;61493;51.008;14.088;2022-07-29T01:50:33;2.65;;;1.73;;
73264;SDS011;61493;51.008;14.088;2022-07-29T01:53:02;4.53;;;1.92;;
73264;SDS011;61493;51.008;14.088;2022-07-29T01:55:32;3.30;;;2.00;;
73264;SDS011;61493;51.008;14.088;2022-07-29T01:58:02;3.58;;;1.65;;
73264;SDS011;61493;51.008;14.088;2022-07-29T02:00:29;5.07;;;2.40;;
73264;SDS011;61493;51.008;14.088;2022-07-29T02:02:56;5.68;;;2.22;;
73264;SDS011;61493;51.008;14.088;2022-07-29T02:05:25;3.25;;;1.77;;
73264;SDS011;61493;51.008;14.088;2022-07-29T02:07:53;3.95;;;1.92;;
73264;SDS011;61493;51.008;14.088;2022-07-29T02:10:21;5.13;;;2.03;;
73264;SDS011;61493;51.008;14.088;2022-07-29T02:12:49;1.88;;;1.60;;
73264;SDS011;61493;51.008;14.088;2022-07-29T02:15:15;3.05;;;1.77;;
73264;SDS011;61493;51.008;14.088;2022-07-29T02:17:42;2.40;;;1.58;;
73264;SDS011;61493;51.008;14.088;2022-07-29T02:20:13;2.78;;;1.80;;
73264;SDS011;61493;51.008;14.088;2022-07-29T02:22:40;5.65;;;1.98;;
73264;SDS011;61493;51.008;14.088;2022-07-29T02:25:08;3.45;;;1.85;;
73264;SDS011;61493;51.008;14.088;2022-07-29T02:27:34;4.60;;;2.08;;
73264;SDS011;61493;51.008;14.088;2022-07-29T02:30:00;2.45;;;1.65;;
73264;SDS011;61493;51.008;14.088;2022-07-29T02:32:27;1.80;;;1.50;;
73264;SDS011;61493;51.008;14.088;2022-07-29T02:34:56;2.13;;;1.60;;
73264;SDS011;61493;51.008;14.088;2022-07-29T02:37:24;3.47;;;1.60;;
73264;SDS011;61493;51.008;14.088;2022-07-29T02:39:52;3.45;;;2.13;;
73264;SDS011;61493;51.008;14.088;2022-07-29T02:42:19;5.10;;;1.70;;
73264;SDS011;61493;51.008;14.088;2022-07-29T02:44:46;3.25;;;2.00;;
73264;SDS011;61493;51.008;14.088;2022-07-29T02:58:05;5.38;;;1.75;;
73264;SDS011;61493;51.008;14.088;2022-07-29T03:00:36;4.90;;;2.22;;
73264;SDS011;61493;51.008;14.088;2022-07-29T03:03:03;3.85;;;1.90;;
73264;SDS011;61493;51.008;14.088;2022-07-29T03:05:33;4.47;;;1.52;;
73264;SDS011;61493;51.008;14.088;2022-07-29T03:08:00;4.05;;;2.10;;
73264;SDS011;61493;51.008;14.088;2022-07-29T03:10:28;5.13;;;3.00;;
73264;SDS011;61493;51.008;14.088;2022-07-29T03:12:54;6.22;;;3.00;;
73264;SDS011;61493;51.008;14.088;2022-07-29T03:15:20;5.78;;;2.78;;
73264;SDS011;61493;51.008;14.088;2022-07-29T03:17:46;7.18;;;3.78;;
73264;SDS011;61493;51.008;14.088;2022-07-29T03:20:12;5.45;;;3.00;;
73264;SDS011;61493;51.008;14.088;2022-07-29T03:22:42;5.88;;;2.50;;
73264;SDS011;61493;51.008;14.088;2022-07-29T03:25:11;3.88;;;1.95;;
73264;SDS011;61493;51.008;14.088;2022-07-29T03:27:40;3.85;;;2.20;;
73264;SDS011;61493;51.008;14.088;2022-07-29T03:30:06;3.20;;;1.88;;
73264;SDS011;61493;51.008;14.088;2022-07-29T03:32:32;2.83;;;2.10;;
73264;SDS011;61493;51.008;14.088;2022-07-29T03:34:58;4.80;;;2.40;;
73264;SDS011;61493;51.008;14.088;2022-07-29T03:37:23;3.92;;;2.00;;
73264;SDS011;61493;51.008;14.088;2022-07-29T03:39:48;8.27;;;2.35;;
73264;SDS011;61493;51.008;14.088;2022-07-29T03:42:16;4.38;;;2.40;;
73264;SDS011;61493;51.008;14.088;2022-07-29T03:44:45;5.85;;;2.05;;
73264;SDS011;61493;51.008;14.088;2022-07-29T03:47:13;3.28;;;2.10;;
73264;SDS011;61493;51.008;14.088;2022-07-29T03:49:40;4.95;;;2.40;;
73264;SDS011;61493;51.008;14.088;2022-07-29T03:52:06;4.28;;;2.25;;
73264;SDS011;61493;51.008;14.088;2022-07-29T03:54:32;5.70;;;2.20;;
73264;SDS011;61493;51.008;14.088;2022-07-29T03:56:59;4.72;;;2.60;;
73264;SDS011;61493;51.008;14.088;2022-07-29T03:59:26;5.47;;;2.03;;
73264;SDS011;61493;51.008;14.088;2022-07-29T04:01:52;5.55;;;2.10;;
73264;SDS011;61493;51.008;14.088;2022-07-29T04:04:18;7.10;;;2.92;;
73264;SDS011;61493;51.008;14.088;2022-07-29T04:06:44;5.88;;;2.10;;
73264;SDS011;61493;51.008;14.088;2022-07-29T04:09:10;4.05;;;1.98;;
73264;SDS011;61493;51.008;14.088;2022-07-29T04:11:37;8.00;;;3.22;;
73264;SDS011;61493;51.008;14.088;2022-07-29T04:14:04;8.90;;;2.83;;
73264;SDS011;61493;51.008;14.088;2022-07-29T04:16:29;4.90;;;2.97;;
73264;SDS011;61493;51.008;14.088;2022-07-29T04:18:54;5.63;;;3.03;;
73264;SDS011;61493;51.008;14.088;2022-07-29T04:21:19;5.85;;;2.63;;
73264;SDS011;61493;51.008;14.088;2022-07-29T04:23:45;9.57;;;2.90;;
73264;SDS011;61493;51.008;14.088;2022-07-29T04:26:14;5.68;;;3.05;;
73264;SDS011;61493;51.008;14.088;2022-07-29T04:28:39;6.28;;;2.83;;
73264;SDS011;61493;51.008;14.088;2022-07-29T04:31:05;5.53;;;2.75;;
73264;SDS011;61493;51.008;14.088;2022-07-29T04:33:30;7.47;;;3.25;;
73264;SDS011;61493;51.008;14.088;2022-07-29T04:35:55;7.93;;;3.10;;
73264;SDS011;61493;51.008;14.088;2022-07-29T04:38:21;4.93;;;2.50;;
73264;SDS011;61493;51.008;14.088;2022-07-29T04:40:47;5.38;;;3.00;;
73264;SDS011;61493;51.008;14.088;2022-07-29T04:43:12;8.82;;;3.45;;
73264;SDS011;61493;51.008;14.088;2022-07-29T04:45:37;5.38;;;3.30;;
73264;SDS011;61493;51.008;14.088;2022-07-29T04:48:02;6.25;;;3.03;;
73264;SDS011;61493;51.008;14.088;2022-07-29T04:50:28;9.73;;;3.30;;
73264;SDS011;61493;51.008;14.088;2022-07-29T04:52:53;7.32;;;2.95;;
73264;SDS011;61493;51.008;14.088;2022-07-29T04:55:18;3.65;;;2.60;;
73264;SDS011;61493;51.008;14.088;2022-07-29T04:57:44;5.18;;;3.38;;
73264;SDS011;61493;51.008;14.088;2022-07-29T05:00:09;7.30;;;2.70;;
73264;SDS011;61493;51.008;14.088;2022-07-29T05:02:35;8.95;;;3.47;;
73264;SDS011;61493;51.008;14.088;2022-07-29T05:05:00;8.15;;;3.03;;
73264;SDS011;61493;51.008;14.088;2022-07-29T05:07:25;5.13;;;2.50;;
73264;SDS011;61493;51.008;14.088;2022-07-29T05:09:51;5.47;;;2.33;;
73264;SDS011;61493;51.008;14.088;2022-07-29T05:12:17;7.03;;;2.65;;
73264;SDS011;61493;51.008;14.088;2022-07-29T05:14:42;5.50;;;2.80;;
73264;SDS011;61493;51.008;14.088;2022-07-29T05:17:08;6.32;;;3.15;;
73264;SDS011;61493;51.008;14.088;2022-07-29T05:19:33;7.93;;;2.80;;
73264;SDS011;61493;51.008;14.088;2022-07-29T05:21:58;3.92;;;3.00;;
73264;SDS011;61493;51.008;14.088;2022-07-29T05:24:24;5.35;;;2.80;;
73264;SDS011;61493;51.008;14.088;2022-07-29T05:26:50;5.72;;;2.50;;
73264;SDS011;61493;51.008;14.088;2022-07-29T05:29:15;6.22;;;3.03;;
73264;SDS011;61493;51.008;14.088;2022-07-29T05:31:41;7.55;;;2.70;;
73264;SDS011;61493;51.008;14.088;2022-07-29T05:34:06;3.95;;;2.10;;
73264;SDS011;61493;51.008;14.088;2022-07-29T05:36:31;4.75;;;3.22;;
73264;SDS011;61493;51.008;14.088;2022-07-29T05:38:56;5.43;;;3.25;;
73264;SDS011;61493;51.008;14.088;2022-07-29T05:41:22;5.80;;;3.45;;
73264;SDS011;61493;51.008;14.088;2022-07-29T05:43:48;5.15;;;2.72;;
73264;SDS011;61493;51.008;14.088;2022-07-29T05:46:13;6.07;;;2.78;;
73264;SDS011;61493;51.008;14.088;2022-07-29T05:48:41;6.63;;;3.53;;
73264;SDS011;61493;51.008;14.088;2022-07-29T05:51:06;9.13;;;3.70;;
73264;SDS011;61493;51.008;14.088;2022-07-29T05:53:32;5.78;;;3.65;;
73264;SDS011;61493;51.008;14.088;2022-07-29T05:55:57;6.25;;;3.80;;
73264;SDS011;61493;51.008;14.088;2022-07-29T05:58:22;8.13;;;5.80;;
73264;SDS011;61493;51.008;14.088;2022-07-29T06:00:48;12.45;;;6.25;;
73264;SDS011;61493;51.008;14.088;2022-07-29T06:03:13;13.68;;;8.98;;
73264;SDS011;61493;51.008;14.088;2022-07-29T06:05:38;17.45;;;10.07;;
73264;SDS011;61493;51.008;14.088;2022-07-29T06:08:04;20.17;;;12.88;;
73264;SDS011;61493;51.008;14.088;2022-07-29T06:10:32;22.30;;;14.52;;
73264;SDS011;61493;51.008;14.088;2022-07-29T06:12:57;24.02;;;13.85;;
73264;SDS011;61493;51.008;14.088;2022-07-29T06:15:22;18.58;;;10.52;;
73264;SDS011;61493;51.008;14.088;2022-07-29T06:17:48;18.60;;;9.93;;
73264;SDS011;61493;51.008;14.088;2022-07-29T06:20:13;24.50;;;9.95;;
73264;SDS011;61493;51.008;14.088;2022-07-29T06:22:38;25.63;;;15.20;;
73264;SDS011;61493;51.008;14.088;2022-07-29T06:25:04;27.70;;;16.00;;
73264;SDS011;61493;51.008;14.088;2022-07-29T06:27:29;38.08;;;20.88;;
73264;SDS011;61493;51.008;14.088;2022-07-29T06:29:55;41.55;;;19.25;;
73264;SDS011;61493;51.008;14.088;2022-07-29T06:32:21;45.33;;;21.50;;
73264;SDS011;61493;51.008;14.088;2022-07-29T06:34:46;45.92;;;24.30;;
73264;SDS011;61493;51.008;14.088;2022-07-29T06:37:11;60.58;;;31.58;;
73264;SDS011;61493;51.008;14.088;2022-07-29T06:39:37;56.58;;;29.83;;
73264;SDS011;61493;51.008;14.088;2022-07-29T06:42:05;55.08;;;30.80;;
73264;SDS011;61493;51.008;14.088;2022-07-29T06:44:31;57.78;;;30.75;;
73264;SDS011;61493;51.008;14.088;2022-07-29T06:46:58;48.05;;;26.88;;
73264;SDS011;61493;51.008;14.088;2022-07-29T06:49:24;42.90;;;23.85;;
73264;SDS011;61493;51.008;14.088;2022-07-29T06:51:50;34.78;;;21.83;;
73264;SDS011;61493;51.008;14.088;2022-07-29T06:54:16;33.88;;;20.02;;
73264;SDS011;61493;51.008;14.088;2022-07-29T06:56:41;30.75;;;17.42;;
73264;SDS011;61493;51.008;14.088;2022-07-29T06:59:08;29.20;;;17.48;;
73264;SDS011;61493;51.008;14.088;2022-07-29T07:01:35;30.38;;;17.92;;
73264;SDS011;61493;51.008;14.088;2022-07-29T07:04:04;27.13;;;14.93;;
73264;SDS011;61493;51.008;14.088;2022-07-29T07:06:29;28.45;;;16.52;;
73264;SDS011;61493;51.008;14.088;2022-07-29T07:08:55;33.50;;;17.35;;
73264;SDS011;61493;51.008;14.088;2022-07-29T07:11:20;32.10;;;17.92;;
73264;SDS011;61493;51.008;14.088;2022-07-29T07:13:45;30.75;;;17.77;;
73264;SDS011;61493;51.008;14.088;2022-07-29T07:16:11;33.75;;;18.90;;
73264;SDS011;61493;51.008;14.088;2022-07-29T07:18:36;39.22;;;21.63;;
73264;SDS011;61493;51.008;14.088;2022-07-29T07:21:01;40.53;;;23.75;;
73264;SDS011;61493;51.008;14.088;2022-07-29T07:23:27;38.42;;;22.88;;
73264;SDS011;61493;51.008;14.088;2022-07-29T07:25:52;39.67;;;22.88;;
73264;SDS011;61493;51.008;14.088;2022-07-29T07:28:18;48.15;;;28.67;;
73264;SDS011;61493;51.008;14.088;2022-07-29T07:30:44;56.00;;;31.55;;
73264;SDS011;61493;51.008;14.088;2022-07-29T07:33:09;58.25;;;34.03;;
73264;SDS011;61493;51.008;14.088;2022-07-29T07:35:35;86.22;;;49.80;;
73264;SDS011;61493;51.008;14.088;2022-07-29T07:38:00;78.32;;;45.63;;
73264;SDS011;61493;51.008;14.088;2022-07-29T07:40:25;85.57;;;51.58;;
73264;SDS011;61493;51.008;14.088;2022-07-29T07:42:51;103.13;;;57.95;;
73264;SDS011;61493;51.008;14.088;2022-07-29T07:45:17;129.55;;;74.75;;
73264;SDS011;61493;51.008;14.088;2022-07-29T07:47:43;171.73;;;94.97;;
73264;SDS011;61493;51.008;14.088;2022-07-29T07:50:09;151.75;;;86.03;;
73264;SDS011;61493;51.008;14.088;2022-07-29T07:52:45;128.13;;;77.82;;
73264;SDS011;61493;51.008;14.088;2022-07-29T07:55:11;136.13;;;74.75;;
73264;SDS011;61493;51.008;14.088;2022-07-29T07:57:36;149.55;;;85.18;;
73264;SDS011;61493;51.008;14.088;2022-07-29T08:00:02;138.32;;;81.10;;
73264;SDS011;61493;51.008;14.088;2022-07-29T08:02:28;122.15;;;73.57;;
73264;SDS011;61493;51.008;14.088;2022-07-29T08:04:54;110.38;;;66.40;;
73264;SDS011;61493;51.008;14.088;2022-07-29T08:07:19;90.70;;;56.63;;
73264;SDS011;61493;51.008;14.088;2022-07-29T08:09:45;112.88;;;70.68;;
73264;SDS011;61493;51.008;14.088;2022-07-29T08:12:10;109.68;;;64.70;;
73264;SDS011;61493;51.008;14.088;2022-07-29T08:14:35;121.93;;;70.35;;
73264;SDS011;61493;51.008;14.088;2022-07-29T08:17:01;92.30;;;57.28;;
73264;SDS011;61493;51.008;14.088;2022-07-29T08:19:26;80.63;;;50.30;;
73264;SDS011;61493;51.008;14.088;2022-07-29T08:21:52;62.55;;;38.10;;
73264;SDS011;61493;51.008;14.088;2022-07-29T08:24:18;100.78;;;58.70;;
73264;SDS011;61493;51.008;14.088;2022-07-29T08:27:02;93.55;;;53.38;;
73264;SDS011;61493;51.008;14.088;2022-07-29T08:29:27;79.20;;;48.45;;
73264;SDS011;61493;51.008;14.088;2022-07-29T08:31:52;78.73;;;50.20;;
73264;SDS011;61493;51.008;14.088;2022-07-29T08:34:18;76.77;;;46.63;;
73264;SDS011;61493;51.008;14.088;2022-07-29T08:36:43;73.85;;;46.63;;
73264;SDS011;61493;51.008;14.088;2022-07-29T08:39:09;51.00;;;34.13;;
73264;SDS011;61493;51.008;14.088;2022-07-29T08:41:34;44.45;;;30.17;;
73264;SDS011;61493;51.008;14.088;2022-07-29T08:44:00;28.70;;;17.75;;
73264;SDS011;61493;51.008;14.088;2022-07-29T08:46:25;42.03;;;25.63;;
73264;SDS011;61493;51.008;14.088;2022-07-29T08:48:50;50.50;;;30.13;;
73264;SDS011;61493;51.008;14.088;2022-07-29T08:51:17;76.15;;;48.10;;
73264;SDS011;61493;51.008;14.088;2022-07-29T08:53:44;76.93;;;49.50;;
73264;SDS011;61493;51.008;14.088;2022-07-29T08:56:13;94.18;;;54.53;;
73264;SDS011;61493;51.008;14.088;2022-07-29T08:58:39;42.78;;;28.05;;
73264;SDS011;61493;51.008;14.088;2022-07-29T09:01:06;38.20;;;26.75;;
73264;SDS011;61493;51.008;14.088;2022-07-29T09:03:32;41.90;;;27.00;;
73264;SDS011;61493;51.008;14.088;2022-07-29T09:06:01;41.38;;;25.23;;
73264;SDS011;61493;51.008;14.088;2022-07-29T09:08:26;29.70;;;21.27;;
73264;SDS011;61493;51.008;14.088;2022-07-29T09:10:53;26.30;;;16.00;;
73264;SDS011;61493;51.008;14.088;2022-07-29T09:13:18;27.02;;;17.83;;
73264;SDS011;61493;51.008;14.088;2022-07-29T09:15:44;27.58;;;18.13;;
73264;SDS011;61493;51.008;14.088;2022-07-29T09:18:10;37.13;;;24.75;;
73264;SDS011;61493;51.008;14.088;2022-07-29T09:20:35;34.10;;;21.30;;
73264;SDS011;61493;51.008;14.088;2022-07-29T09:23:19;32.17;;;21.33;;
73264;SDS011;61493;51.008;14.088;2022-07-29T09:25:45;22.90;;;15.75;;
73264;SDS011;61493;51.008;14.088;2022-07-29T09:28:13;15.80;;;10.02;;
73264;SDS011;61493;51.008;14.088;2022-07-29T09:30:54;25.60;;;14.18;;
73264;SDS011;61493;51.008;14.088;2022-07-29T09:33:21;24.02;;;14.50;;
73264;SDS011;61493;51.008;14.088;2022-07-29T09:36:09;26.58;;;16.35;;
73264;SDS011;61493;51.008;14.088;2022-07-29T09:38:34;23.85;;;14.85;;
73264;SDS011;61493;51.008;14.088;2022-07-29T09:41:02;21.70;;;13.63;;
73264;SDS011;61493;51.008;14.088;2022-07-29T09:43:28;28.42;;;16.85;;
73264;SDS011;61493;51.008;14.088;2022-07-29T09:45:53;33.75;;;20.35;;
73264;SDS011;61493;51.008;14.088;2022-07-29T09:48:24;25.65;;;12.55;;
73264;SDS011;61493;51.008;14.088;2022-07-29T09:50:50;17.05;;;10.48;;
73264;SDS011;61493;51.008;14.088;2022-07-29T09:56:01;18.85;;;11.98;;
73264;SDS011;61493;51.008;14.088;2022-07-29T09:58:27;21.80;;;12.15;;
73264;SDS011;61493;51.008;14.088;2022-07-29T10:00:53;29.02;;;18.15;;
73264;SDS011;61493;51.008;14.088;2022-07-29T10:03:20;27.67;;;16.50;;
73264;SDS011;61493;51.008;14.088;2022-07-29T10:05:48;26.20;;;17.13;;
73264;SDS011;61493;51.008;14.088;2022-07-29T10:08:29;25.80;;;18.33;;
73264;SDS011;61493;51.008;14.088;2022-07-29T10:11:03;36.55;;;22.70;;
73264;SDS011;61493;51.008;14.088;2022-07-29T10:13:34;33.90;;;20.80;;
73264;SDS011;61493;51.008;14.088;2022-07-29T10:15:59;24.33;;;15.27;;
73264;SDS011;61493;51.008;14.088;2022-07-29T10:18:25;14.45;;;10.00;;
73264;SDS011;61493;51.008;14.088;2022-07-29T10:20:50;17.20;;;9.82;;
73264;SDS011;61493;51.008;14.088;2022-07-29T10:23:16;19.35;;;13.40;;
73264;SDS011;61493;51.008;14.088;2022-07-29T10:25:41;38.42;;;23.00;;
73264;SDS011;61493;51.008;14.088;2022-07-29T10:28:07;43.22;;;27.20;;
73264;SDS011;61493;51.008;14.088;2022-07-29T10:30:32;32.65;;;22.42;;
73264;SDS011;61493;51.008;14.088;2022-07-29T10:33:03;35.90;;;22.75;;
73264;SDS011;61493;51.008;14.088;2022-07-29T10:41:29;32.28;;;22.67;;
73264;SDS011;61493;51.008;14.088;2022-07-29T10:44:00;36.50;;;21.52;;
73264;SDS011;61493;51.008;14.088;2022-07-29T10:46:27;33.55;;;20.13;;
73264;SDS011;61493;51.008;14.088;2022-07-29T10:54:15;17.25;;;13.40;;
73264;SDS011;61493;51.008;14.088;2022-07-29T10:56:41;18.13;;;11.70;;
73264;SDS011;61493;51.008;14.088;2022-07-29T11:01:44;18.10;;;9.23;;
73264;SDS011;61493;51.008;14.088;2022-07-29T11:04:10;13.63;;;7.65;;
73264;SDS011;61493;51.008;14.088;2022-07-29T11:09:27;10.20;;;6.55;;
73264;SDS011;61493;51.008;14.088;2022-07-29T11:11:54;11.07;;;7.68;;
73264;SDS011;61493;51.008;14.088;2022-07-29T11:17:16;11.88;;;7.65;;
73264;SDS011;61493;51.008;14.088;2022-07-29T11:19:41;16.30;;;9.90;;
73264;SDS011;61493;51.008;14.088;2022-07-29T11:22:07;13.82;;;9.57;;
73264;SDS011;61493;51.008;14.088;2022-07-29T11:24:34;15.60;;;9.73;;
73264;SDS011;61493;51.008;14.088;2022-07-29T11:27:17;16.27;;;10.15;;
73264;SDS011;61493;51.008;14.088;2022-07-29T11:29:51;14.98;;;11.25;;
73264;SDS011;61493;51.008;14.088;2022-07-29T11:32:23;16.42;;;11.18;;
73264;SDS011;61493;51.008;14.088;2022-07-29T11:35:10;15.07;;;10.70;;
73264;SDS011;61493;51.008;14.088;2022-07-29T11:37:46;16.33;;;12.65;;
73264;SDS011;61493;51.008;14.088;2022-07-29T11:40:32;18.02;;;13.27;;
73264;SDS011;61493;51.008;14.088;2022-07-29T11:42:57;20.10;;;14.20;;
73264;SDS011;61493;51.008;14.088;2022-07-29T11:45:23;19.57;;;14.10;;
73264;SDS011;61493;51.008;14.088;2022-07-29T11:47:54;18.73;;;13.57;;
73264;SDS011;61493;51.008;14.088;2022-07-29T11:50:27;17.83;;;14.07;;
73264;SDS011;61493;51.008;14.088;2022-07-29T11:52:55;18.05;;;13.55;;
73264;SDS011;61493;51.008;14.088;2022-07-29T11:55:21;18.75;;;13.50;;
73264;SDS011;61493;51.008;14.088;2022-07-29T11:57:49;17.90;;;13.48;;
73264;SDS011;61493;51.008;14.088;2022-07-29T12:00:22;19.63;;;14.18;;
73264;SDS011;61493;51.008;14.088;2022-07-29T12:03:10;21.75;;;16.35;;
73264;SDS011;61493;51.008;14.088;2022-07-29T12:05:40;20.52;;;15.18;;
73264;SDS011;61493;51.008;14.088;2022-07-29T12:08:11;23.25;;;16.40;;
73264;SDS011;61493;51.008;14.088;2022-07-29T12:10:38;21.48;;;15.55;;
73264;SDS011;61493;51.008;14.088;2022-07-29T12:13:04;21.33;;;15.95;;
73264;SDS011;61493;51.008;14.088;2022-07-29T12:15:30;19.33;;;14.50;;
73264;SDS011;61493;51.008;14.088;2022-07-29T12:17:56;11.15;;;7.70;;
73264;SDS011;61493;51.008;14.088;2022-07-29T12:20:22;9.32;;;4.88;;
73264;SDS011;61493;51.008;14.088;2022-07-29T12:22:49;7.18;;;4.90;;
73264;SDS011;61493;51.008;14.088;2022-07-29T12:25:15;13.88;;;8.88;;
73264;SDS011;61493;51.008;14.088;2022-07-29T12:27:42;14.10;;;8.77;;
73264;SDS011;61493;51.008;14.088;2022-07-29T12:30:12;12.05;;;8.95;;
73264;SDS011;61493;51.008;14.088;2022-07-29T12:32:41;12.38;;;7.45;;
73264;SDS011;61493;51.008;14.088;2022-07-29T12:35:12;10.15;;;6.80;;
73264;SDS011;61493;51.008;14.088;2022-07-29T12:37:40;9.27;;;6.22;;
73264;SDS011;61493;51.008;14.088;2022-07-29T12:40:08;11.55;;;7.88;;
73264;SDS011;61493;51.008;14.088;2022-07-29T12:42:36;14.57;;;9.93;;
73264;SDS011;61493;51.008;14.088;2022-07-29T12:45:02;15.52;;;9.00;;
73264;SDS011;61493;51.008;14.088;2022-07-29T12:47:28;14.48;;;10.20;;
73264;SDS011;61493;51.008;14.088;2022-07-29T12:50:10;15.40;;;11.35;;
73264;SDS011;61493;51.008;14.088;2022-07-29T12:52:37;19.50;;;11.40;;
73264;SDS011;61493;51.008;14.088;2022-07-29T12:55:03;21.45;;;14.38;;
73264;SDS011;61493;51.008;14.088;2022-07-29T12:57:29;19.98;;;14.43;;
73264;SDS011;61493;51.008;14.088;2022-07-29T13:00:02;19.38;;;12.23;;
73264;SDS011;61493;51.008;14.088;2022-07-29T13:02:30;15.55;;;11.55;;
73264;SDS011;61493;51.008;14.088;2022-07-29T13:04:56;17.48;;;11.60;;
73264;SDS011;61493;51.008;14.088;2022-07-29T13:07:27;22.75;;;15.73;;
73264;SDS011;61493;51.008;14.088;2022-07-29T13:09:54;20.92;;;14.77;;
73264;SDS011;61493;51.008;14.088;2022-07-29T13:12:35;26.50;;;18.00;;
73264;SDS011;61493;51.008;14.088;2022-07-29T13:15:00;34.97;;;20.42;;
73264;SDS011;61493;51.008;14.088;2022-07-29T13:17:41;28.85;;;20.88;;
73264;SDS011;61493;51.008;14.088;2022-07-29T13:20:09;28.20;;;18.45;;
73264;SDS011;61493;51.008;14.088;2022-07-29T13:22:39;25.13;;;18.40;;
73264;SDS011;61493;51.008;14.088;2022-07-29T13:25:12;21.67;;;16.50;;
73264;SDS011;61493;51.008;14.088;2022-07-29T13:27:37;24.95;;;16.63;;
73264;SDS011;61493;51.008;14.088;2022-07-29T13:30:05;22.23;;;14.48;;
73264;SDS011;61493;51.008;14.088;2022-07-29T13:32:32;20.10;;;13.75;;
73264;SDS011;61493;51.008;14.088;2022-07-29T13:35:00;18.67;;;11.52;;
73264;SDS011;61493;51.008;14.088;2022-07-29T13:37:27;14.40;;;9.05;;
73264;SDS011;61493;51.008;14.088;2022-07-29T13:39:54;12.43;;;9.38;;
73264;SDS011;61493;51.008;14.088;2022-07-29T13:42:20;12.80;;;8.32;;
73264;SDS011;61493;51.008;14.088;2022-07-29T13:44:46;10.80;;;7.72;;
73264;SDS011;61493;51.008;14.088;2022-07-29T13:47:13;10.40;;;7.35;;
73264;SDS011;61493;51.008;14.088;2022-07-29T13:49:39;11.32;;;9.32;;
73264;SDS011;61493;51.008;14.088;2022-07-29T13:52:04;11.40;;;8.63;;
73264;SDS011;61493;51.008;14.088;2022-07-29T13:54:32;16.17;;;8.93;;
73264;SDS011;61493;51.008;14.088;2022-07-29T13:56:57;13.27;;;8.55;;
73264;SDS011;61493;51.008;14.088;2022-07-29T13:59:22;12.95;;;8.65;;
73264;SDS011;61493;51.008;14.088;2022-07-29T14:01:47;14.50;;;10.73;;
73264;SDS011;61493;51.008;14.088;2022-07-29T14:04:13;16.08;;;10.73;;
73264;SDS011;61493;51.008;14.088;2022-07-29T14:06:38;16.30;;;9.60;;
73264;SDS011;61493;51.008;14.088;2022-07-29T14:09:04;12.77;;;9.13;;
73264;SDS011;61493;51.008;14.088;2022-07-29T14:11:33;8.57;;;5.88;;
73264;SDS011;61493;51.008;14.088;2022-07-29T14:13:59;12.73;;;6.93;;
73264;SDS011;61493;51.008;14.088;2022-07-29T14:16:24;12.83;;;8.37;;
73264;SDS011;61493;51.008;14.088;2022-07-29T14:18:50;15.45;;;9.65;;
73264;SDS011;61493;51.008;14.088;2022-07-29T14:21:15;11.30;;;7.05;;
73264;SDS011;61493;51.008;14.088;2022-07-29T14:23:40;7.47;;;5.45;;
73264;SDS011;61493;51.008;14.088;2022-07-29T14:26:05;7.05;;;5.10;;
73264;SDS011;61493;51.008;14.088;2022-07-29T14:28:31;8.50;;;5.90;;
73264;SDS011;61493;51.008;14.088;2022-07-29T14:30:56;8.93;;;6.03;;
73264;SDS011;61493;51.008;14.088;2022-07-29T14:33:22;7.80;;;5.28;;
73264;SDS011;61493;51.008;14.088;2022-07-29T14:35:47;8.43;;;5.40;;
73264;SDS011;61493;51.008;14.088;2022-07-29T14:38:12;9.00;;;6.05;;
73264;SDS011;61493;51.008;14.088;2022-07-29T14:40:37;9.25;;;6.15;;
73264;SDS011;61493;51.008;14.088;2022-07-29T14:43:03;19.95;;;12.57;;
73264;SDS011;61493;51.008;14.088;2022-07-29T14:45:28;17.15;;;11.90;;
73264;SDS011;61493;51.008;14.088;2022-07-29T14:47:53;14.93;;;9.70;;
73264;SDS011;61493;51.008;14.088;2022-07-29T14:50:19;15.18;;;11.05;;
73264;SDS011;61493;51.008;14.088;2022-07-29T14:52:44;17.50;;;11.68;;
73264;SDS011;61493;51.008;14.088;2022-07-29T14:55:10;16.25;;;10.05;;
73264;SDS011;61493;51.008;14.088;2022-07-29T14:57:35;12.93;;;8.98;;
73264;SDS011;61493;51.008;14.088;2022-07-29T15:00:01;10.70;;;6.55;;
73264;SDS011;61493;51.008;14.088;2022-07-29T15:02:27;11.40;;;6.50;;